Ashley, ND

7:34 PM CDT on July 28, 2014 (GMT -0500)
Eureka, South Dakota (KSDEUREK2) Elev 1871 ft | 45.77 °N, 99.62 °W | Change Station

Current weather conditions updated 8 seconds ago

Clear
Clear
71.9 °F
Feels Like 77 °F
N
4.0
Wind Variable Wind from North
Gusts 8.0 mph

Tomorrow is forecast to be Warmer than today.

Today
High -- | Low -- °F
--% Chance of Precip.
Yesterday
High -- | Low -- °F
Precip. -- in
6:15 AM 9:12 PM
Waxing Crescent, 4% visible
Pressure 30.24 in
Visibility 10.0 miles
Clouds Clear
Heat Index 77 °F
Dew Point 51 °F
Humidity 48%
Rainfall 0.00 in
Snow Depth Not available.
UV 1 out of 12
Pollen 7.30 out of 12
Air Quality Not available.
Flu Activity Not available.
METAR K7L2 290015Z AUTO 03006KT 10SM CLR 23/11 A3024 RMK AO2

More Conditions Fewer Conditions

Pressure 30.24 in
Visibility 10.0 miles
Clouds Clear
Heat Index 77 °F
Dew Point 51 °F
Humidity 48%
Rainfall 0.00 in
Snow Depth Not available.
UV 1 out of 12
Pollen 7.30 out of 12
Air Quality Not available.
Flu Activity Not available.
METAR K7L2 290015Z AUTO 03006KT 10SM CLR 23/11 A3024 RMK AO2

More Conditions Fewer Conditions

10-Day Weather Forecast

Almanac

Astronomy

Jul. 28, 2014 Rise Set
Actual Time 6:15 AM CDT 9:12 PM CDT
Civil Twilight 5:40 AM CDT 9:47 PM CDT
Nautical Twilight 4:54 AM CDT 10:31 PM CDT
Astronomical Twilight 4:00 AM CDT 11:25 PM CDT
Moon 8:07 AM CDT (7/28) 9:44 PM CDT (7/28)
Length of Visible Light 16h 07m
Length of Day
14h 56m
Tomorrow will be 2m 23s shorter.
Waxing Crescent, 4% of the Moon is Illuminated
Today
Waxing Crescent
Aug 3
First Quarter
Aug 10
Full
Aug 17
Last Quarter
Aug 25
New

Today's Extremes

State Highs State Lows

Community

WunderPhotos

Upload Photos

1,738,562 photos uploaded!

WunderBlogs® & News

Nearby

Snow Depth

Station Depth Elevation
No new snow has been reported.

Earthquake Activity

City Distance Mag. Time & Date
No recent earthquake activity has been reported nearby.
Minimum magnitude displayed is 2.5.

Coastal Water Temperatures

Place Temperature
No Stations Reporting

Nearby Weather Stations

Station Location Temp. Heat Index Dew Point Humidity Wind Precip. Elev Updated Type
Eureka, South Dakota, Eureka, SD 71.9 °F 77 °F 51 °F 48% North  at  4.0 mph 0.00 in / hr 1871 ft 7:34 PM CDT Rapid Fire

Show More Stations Show Fewer Stations